Time;durP1;ratioP1;P1;durP2;ratioP2;P2;SDS_P1;SDS_P2;PMS_P1;PMS_P2;Temp;Humidity;BMP_temperature;BMP_pressure;BME280_temperature;BME280_humidity;BME280_pressure;Samples;Min_cycle;Max_cycle;Signal;HPM_P1;HPM_P2
2022/03/29 00:00:40;;;;;;;0.30;0.30;;;6.60;1.00;;;;;;5097597;28;20111;-75
2022/03/29 00:03:07;;;;;;;0.10;0.10;;;6.70;1.00;;;;;;5097850;28;20044;-74
2022/03/29 00:05:34;;;;;;;0.35;0.35;;;6.60;1.00;;;;;;5097832;28;20039;-75
2022/03/29 00:08:00;;;;;;;0.22;0.22;;;6.60;1.00;;;;;;5096761;28;20043;-75
2022/03/29 00:10:26;;;;;;;0.80;0.57;;;6.50;1.00;;;;;;5097016;28;20036;-75
2022/03/29 00:12:55;;;;;;;0.47;0.47;;;6.50;1.00;;;;;;5096825;28;20433;-75
2022/03/29 00:15:22;;;;;;;0.68;0.68;;;6.40;1.00;;;;;;5096604;28;20032;-75
2022/03/29 00:17:47;;;;;;;0.30;0.30;;;6.40;1.00;;;;;;5097339;28;20032;-74
2022/03/29 00:20:15;;;;;;;0.30;0.30;;;6.40;1.00;;;;;;5096683;28;20097;-75
2022/03/29 00:22:41;;;;;;;0.10;0.10;;;6.40;1.00;;;;;;5095937;28;20039;-75
2022/03/29 00:25:07;;;;;;;0.55;0.55;;;6.40;1.00;;;;;;5096851;28;20127;-75
2022/03/29 00:27:37;;;;;;;0.40;0.40;;;6.40;1.00;;;;;;5096246;28;20445;-75
2022/03/29 00:30:04;;;;;;;1.10;0.65;;;6.30;1.00;;;;;;5097048;28;20082;-74
2022/03/29 00:32:30;;;;;;;0.20;0.20;;;6.30;1.00;;;;;;5096763;28;20559;-75
2022/03/29 00:34:57;;;;;;;0.52;0.52;;;6.30;1.00;;;;;;5096394;28;20510;-75
2022/03/29 00:37:23;;;;;;;0.10;0.10;;;6.30;1.00;;;;;;5096061;28;20031;-75
2022/03/29 00:39:49;;;;;;;0.38;0.38;;;6.30;1.00;;;;;;5096626;28;20050;-74
2022/03/29 00:42:14;;;;;;;0.20;0.20;;;6.30;1.00;;;;;;5096388;28;20036;-74
2022/03/29 00:44:40;;;;;;;0.10;0.10;;;6.10;1.00;;;;;;5096525;28;20040;-74
2022/03/29 00:47:06;;;;;;;0.22;0.22;;;6.10;1.00;;;;;;5096487;28;20059;-74
2022/03/29 00:49:32;;;;;;;0.20;0.20;;;6.00;1.00;;;;;;5096428;28;20040;-75
2022/03/29 00:52:01;;;;;;;1.13;1.10;;;6.00;1.00;;;;;;5096443;28;20498;-75
2022/03/29 00:54:37;;;;;;;0.10;0.10;;;6.10;1.00;;;;;;5096312;28;20044;-74
2022/03/29 00:57:05;;;;;;;0.10;0.10;;;5.90;1.00;;;;;;5095981;28;20509;-75
2022/03/29 00:59:31;;;;;;;0.90;0.35;;;5.90;1.00;;;;;;5096209;28;20067;-75
2022/03/29 01:01:58;;;;;;;0.22;0.22;;;6.00;1.00;;;;;;5096146;28;20046;-75
2022/03/29 01:04:25;;;;;;;0.30;0.30;;;5.90;1.00;;;;;;5095835;28;20036;-75
2022/03/29 01:06:58;;;;;;;0.43;0.30;;;5.90;1.00;;;;;;5096132;28;20079;-75
2022/03/29 01:09:29;;;;;;;2.85;0.75;;;6.00;1.00;;;;;;5096538;28;20117;-75
2022/03/29 01:11:55;;;;;;;;;;;5.80;1.00;;;;;;5096236;28;20085;-75
2022/03/29 01:14:23;;;;;;;0.10;0.10;;;5.80;1.00;;;;;;5095623;28;19915;-74
2022/03/29 01:19:35;;;;;;;0.35;0.35;;;5.60;1.00;;;;;;5095978;28;20031;-75
2022/03/29 01:22:07;;;;;;;0.20;0.20;;;5.70;1.00;;;;;;5096067;28;20047;-75
2022/03/29 01:24:36;;;;;;;0.93;0.90;;;5.70;1.00;;;;;;5096044;28;20483;-75
2022/03/29 01:27:05;;;;;;;0.10;0.10;;;5.60;1.00;;;;;;5095707;28;20524;-75
2022/03/29 01:29:33;;;;;;;0.43;0.40;;;5.80;1.00;;;;;;5095681;28;20036;-75
2022/03/29 01:32:01;;;;;;;4.78;0.88;;;5.80;1.00;;;;;;5095597;28;20356;-75
2022/03/29 01:34:28;;;;;;;0.20;0.20;;;5.80;1.00;;;;;;5094575;28;20036;-75
2022/03/29 01:36:55;;;;;;;0.57;0.57;;;5.70;1.00;;;;;;5095647;28;20514;-75
2022/03/29 01:39:21;;;;;;;0.10;0.10;;;5.60;1.00;;;;;;5095773;28;20118;-75
2022/03/29 01:41:48;;;;;;;0.10;0.10;;;5.50;1.00;;;;;;5077588;28;20511;-75
2022/03/29 01:44:14;;;;;;;3.25;0.63;;;5.50;1.00;;;;;;5095677;28;20494;-75
2022/03/29 01:46:40;;;;;;;0.30;0.30;;;5.60;1.00;;;;;;5095745;28;20044;-74
2022/03/29 01:49:06;;;;;;;0.10;0.10;;;5.60;1.00;;;;;;5095591;28;20032;-74
2022/03/29 01:51:33;;;;;;;0.10;0.10;;;5.60;1.00;;;;;;5095277;28;20551;-74
2022/03/29 01:54:02;;;;;;;0.10;0.10;;;5.50;1.00;;;;;;5095799;28;20502;-75
2022/03/29 01:56:32;;;;;;;0.10;0.10;;;5.50;1.00;;;;;;5095599;28;20071;-75
2022/03/29 01:58:59;;;;;;;0.10;0.10;;;5.50;1.00;;;;;;5095482;28;20089;-75
2022/03/29 02:01:25;;;;;;;0.57;0.57;;;5.40;1.00;;;;;;5095417;28;20036;-74
2022/03/29 02:03:51;;;;;;;0.20;0.20;;;5.40;1.00;;;;;;5095383;28;20512;-74
2022/03/29 02:06:16;;;;;;;0.22;0.22;;;5.40;1.00;;;;;;5095678;28;20067;-75
2022/03/29 02:08:43;;;;;;;0.20;0.20;;;5.20;1.00;;;;;;5095224;28;20135;-75
2022/03/29 02:11:09;;;;;;;0.10;0.10;;;5.30;1.00;;;;;;5094974;28;20036;-75
2022/03/29 02:13:35;;;;;;;0.65;0.40;;;5.30;1.00;;;;;;5095225;28;20036;-75
2022/03/29 02:16:01;;;;;;;0.20;0.20;;;5.20;1.00;;;;;;5094769;28;20062;-75
2022/03/29 02:18:27;;;;;;;0.65;0.52;;;5.10;1.00;;;;;;5095354;28;20075;-74
2022/03/29 02:20:52;;;;;;;0.28;0.28;;;5.00;1.00;;;;;;5094758;28;20039;-75
2022/03/29 02:23:19;;;;;;;1.48;1.30;;;5.00;1.00;;;;;;5095056;28;20036;-75
2022/03/29 02:25:47;;;;;;;0.00;0.00;;;5.00;1.00;;;;;;5094801;28;20093;-75
2022/03/29 02:28:14;;;;;;;0.00;0.00;;;5.10;1.00;;;;;;5094693;28;20498;-75
2022/03/29 02:30:40;;;;;;;0.10;0.10;;;5.10;1.00;;;;;;5094714;28;20097;-75
2022/03/29 02:33:06;;;;;;;0.30;0.30;;;5.10;1.00;;;;;;5094702;28;20044;-75
2022/03/29 02:35:32;;;;;;;0.20;0.20;;;5.10;1.00;;;;;;5095179;28;20115;-75
2022/03/29 02:37:59;;;;;;;0.38;0.38;;;4.90;1.00;;;;;;5094622;28;20044;-75
2022/03/29 02:40:25;;;;;;;0.30;0.30;;;4.80;1.00;;;;;;5094903;28;20068;-75
2022/03/29 02:42:53;;;;;;;1.90;0.55;;;4.90;1.00;;;;;;5094575;28;20548;-75
2022/03/29 02:45:20;;;;;;;0.10;0.10;;;4.80;1.00;;;;;;5096145;28;20036;-75
2022/03/29 02:47:49;;;;;;;0.20;0.20;;;4.90;1.00;;;;;;5098406;28;20048;-75
2022/03/29 02:50:16;;;;;;;0.22;0.22;;;4.90;1.00;;;;;;5098694;28;20047;-75
2022/03/29 02:52:53;;;;;;;0.10;0.10;;;5.00;1.00;;;;;;5098909;28;20109;-75
2022/03/29 02:55:21;;;;;;;0.20;0.20;;;5.00;1.00;;;;;;5099020;28;20040;-75
2022/03/29 02:57:47;;;;;;;0.00;0.00;;;4.90;1.00;;;;;;5098578;28;20101;-75
2022/03/29 03:00:16;;;;;;;0.75;0.75;;;4.90;1.00;;;;;;5098544;28;20044;-75
2022/03/29 03:02:42;;;;;;;0.43;0.43;;;4.90;1.00;;;;;;5098201;28;20067;-75
2022/03/29 03:05:10;;;;;;;0.20;0.20;;;4.90;1.00;;;;;;5098455;28;20044;-75
2022/03/29 03:07:40;;;;;;;0.40;0.40;;;4.80;1.00;;;;;;5098383;28;20075;-75
2022/03/29 03:10:06;;;;;;;0.38;0.28;;;4.80;1.00;;;;;;5098202;28;20526;-75
2022/03/29 03:12:42;;;;;;;0.32;0.32;;;4.70;1.00;;;;;;5098258;28;20039;-75
2022/03/29 03:15:10;;;;;;;0.20;0.20;;;4.80;1.00;;;;;;5098439;28;20040;-75
2022/03/29 03:17:37;;;;;;;0.57;0.57;;;4.80;1.00;;;;;;5098087;28;20055;-75
2022/03/29 03:20:04;;;;;;;0.13;0.13;;;4.80;1.00;;;;;;5098202;28;20036;-75
2022/03/29 03:22:30;;;;;;;0.10;0.10;;;4.60;1.00;;;;;;5097732;28;20036;-75
2022/03/29 03:24:56;;;;;;;0.52;0.45;;;4.60;1.00;;;;;;5098102;28;20038;-75
2022/03/29 03:27:22;;;;;;;1.55;0.70;;;4.60;1.00;;;;;;5097853;28;20048;-75
2022/03/29 03:29:48;;;;;;;0.00;0.00;;;4.60;1.00;;;;;;5098025;28;20089;-75
2022/03/29 03:32:14;;;;;;;0.10;0.10;;;4.50;1.00;;;;;;5097756;28;20457;-75
2022/03/29 03:34:41;;;;;;;0.00;0.00;;;4.50;4.00;;;;;;5097628;28;20393;-75
2022/03/29 03:37:08;;;;;;;0.20;0.20;;;4.40;2.20;;;;;;5097694;28;20052;-75
2022/03/29 03:39:37;;;;;;;3.20;0.75;;;4.40;1.00;;;;;;5097787;28;20077;-75
2022/03/29 03:42:07;;;;;;;0.10;0.10;;;4.40;5.00;;;;;;5097334;28;20035;-75
2022/03/29 03:44:33;;;;;;;0.00;0.00;;;4.50;4.20;;;;;;5098382;28;20044;-75
2022/03/29 03:47:00;;;;;;;0.10;0.10;;;4.40;3.50;;;;;;5097198;28;20434;-75
2022/03/29 03:49:26;;;;;;;0.10;0.10;;;4.30;8.00;;;;;;5097338;28;20051;-75
2022/03/29 03:51:52;;;;;;;0.03;0.03;;;4.30;7.10;;;;;;5097586;28;20070;-75
2022/03/29 03:54:18;;;;;;;0.10;0.10;;;4.40;10.00;;;;;;5097505;28;20070;-75
2022/03/29 03:56:45;;;;;;;0.10;0.10;;;4.50;3.70;;;;;;5095161;28;20062;-76
2022/03/29 03:59:11;;;;;;;0.00;0.00;;;4.40;1.00;;;;;;5086510;28;20107;-74
2022/03/29 04:01:37;;;;;;;0.17;0.17;;;4.40;3.80;;;;;;5097319;28;20043;-74
2022/03/29 04:04:04;;;;;;;0.52;0.52;;;4.40;8.20;;;;;;5103761;28;20509;-74
2022/03/29 04:06:30;;;;;;;0.00;0.00;;;4.40;9.10;;;;;;5097115;28;20498;-74
2022/03/29 04:08:56;;;;;;;0.00;0.00;;;4.30;8.20;;;;;;5096761;28;20032;-74
2022/03/29 04:11:21;;;;;;;0.10;0.10;;;4.30;12.40;;;;;;5096668;28;20064;-74
2022/03/29 04:13:48;;;;;;;0.20;0.20;;;4.20;9.10;;;;;;5096754;28;20036;-74
2022/03/29 04:16:14;;;;;;;0.00;0.00;;;4.20;8.00;;;;;;5099691;28;20575;-75
2022/03/29 04:18:39;;;;;;;0.10;0.10;;;4.20;16.30;;;;;;5105736;28;20043;-75
2022/03/29 04:21:07;;;;;;;0.15;0.15;;;4.20;12.50;;;;;;5098270;28;20095;-75
2022/03/29 04:23:35;;;;;;;0.70;0.68;;;4.20;11.70;;;;;;5097260;28;20031;-76
2022/03/29 04:26:02;;;;;;;0.10;0.10;;;4.10;12.10;;;;;;5096639;28;20031;-76
2022/03/29 04:28:28;;;;;;;0.00;0.00;;;4.30;10.50;;;;;;5101136;28;20052;-75
2022/03/29 04:30:55;;;;;;;0.20;0.20;;;4.20;17.30;;;;;;5097067;28;20131;-75
2022/03/29 04:33:22;;;;;;;0.10;0.10;;;4.10;12.40;;;;;;5103326;28;20112;-75
2022/03/29 04:35:48;;;;;;;0.10;0.10;;;4.20;17.50;;;;;;5100402;28;20054;-76
2022/03/29 04:38:14;;;;;;;0.22;0.22;;;4.20;18.00;;;;;;5101286;28;20040;-75
2022/03/29 04:40:40;;;;;;;0.00;0.00;;;4.10;24.80;;;;;;5116993;28;20053;-77
2022/03/29 04:43:06;;;;;;;0.10;0.10;;;4.10;22.40;;;;;;5116636;28;20034;-77
2022/03/29 04:45:32;;;;;;;0.30;0.30;;;4.10;24.00;;;;;;5098912;28;20070;-78
2022/03/29 04:47:57;;;;;;;0.93;0.68;;;4.20;21.20;;;;;;5117150;28;20035;-77
2022/03/29 04:50:23;;;;;;;0.22;0.22;;;4.20;19.90;;;;;;5117111;28;20051;-77
2022/03/29 04:52:49;;;;;;;1.08;0.52;;;4.20;20.20;;;;;;5116954;28;20149;-77
2022/03/29 04:55:16;;;;;;;0.10;0.10;;;4.20;19.00;;;;;;5114894;28;20055;-77
2022/03/29 04:57:44;;;;;;;0.17;0.17;;;4.20;18.10;;;;;;5114875;28;20043;-77
2022/03/29 05:00:12;;;;;;;0.10;0.10;;;4.20;22.50;;;;;;5115201;28;20043;-77
2022/03/29 05:02:39;;;;;;;0.10;0.10;;;4.30;20.10;;;;;;5114802;28;20074;-76
2022/03/29 05:05:06;;;;;;;0.63;0.20;;;4.40;21.00;;;;;;5115086;28;20048;-77
2022/03/29 05:07:31;;;;;;;0.28;0.28;;;4.50;17.60;;;;;;5114807;28;20126;-77
2022/03/29 05:09:57;;;;;;;0.13;0.13;;;4.50;14.80;;;;;;5116399;28;20123;-77
2022/03/29 05:12:23;;;;;;;0.10;0.10;;;4.50;12.10;;;;;;5116577;28;20038;-77
2022/03/29 05:14:49;;;;;;;0.10;0.10;;;4.50;12.00;;;;;;5116701;28;20095;-76
2022/03/29 05:17:15;;;;;;;0.00;0.00;;;4.50;13.30;;;;;;5117013;28;20083;-77
2022/03/29 05:19:41;;;;;;;0.00;0.00;;;4.50;12.50;;;;;;5116293;28;20046;-76
2022/03/29 05:22:07;;;;;;;1.33;0.57;;;4.40;13.90;;;;;;5116292;28;20047;-77
2022/03/29 05:24:33;;;;;;;0.80;0.80;;;4.50;18.70;;;;;;5116465;28;20063;-77
2022/03/29 05:26:58;;;;;;;0.10;0.10;;;4.40;23.70;;;;;;5116396;28;20042;-77
2022/03/29 05:29:25;;;;;;;0.40;0.40;;;4.40;26.20;;;;;;5116661;28;20359;-77
2022/03/29 05:31:51;;;;;;;0.10;0.10;;;4.40;21.70;;;;;;5116039;28;20524;-77
2022/03/29 05:34:17;;;;;;;0.35;0.35;;;4.40;22.20;;;;;;5115980;28;20039;-78
2022/03/29 05:36:45;;;;;;;0.00;0.00;;;4.40;25.40;;;;;;5116504;28;20051;-77
2022/03/29 05:39:13;;;;;;;0.30;0.30;;;4.40;24.00;;;;;;5116186;28;20035;-76
2022/03/29 05:41:42;;;;;;;0.10;0.10;;;4.50;19.10;;;;;;5115988;28;20572;-77
2022/03/29 05:44:09;;;;;;;0.20;0.20;;;4.40;19.20;;;;;;5116350;28;20482;-77
2022/03/29 05:49:22;;;;;;;0.30;0.30;;;4.40;18.90;;;;;;5115773;28;20550;-76
2022/03/29 05:51:50;;;;;;;0.75;0.75;;;4.40;21.20;;;;;;5115940;28;20097;-77
2022/03/29 05:54:17;;;;;;;0.05;0.05;;;4.40;18.60;;;;;;5115804;28;20063;-77
2022/03/29 05:56:43;;;;;;;0.10;0.10;;;4.40;17.60;;;;;;5115579;28;20543;-76
2022/03/29 05:59:09;;;;;;;0.05;0.05;;;4.40;20.10;;;;;;5115821;28;20122;-77
2022/03/29 06:01:35;;;;;;;0.20;0.20;;;4.40;17.10;;;;;;5114435;28;20532;-77
2022/03/29 06:04:06;;;;;;;0.10;0.10;;;4.40;20.30;;;;;;5114185;28;20040;-77
2022/03/29 06:06:33;;;;;;;0.30;0.30;;;4.40;27.10;;;;;;5101588;28;20039;-76
2022/03/29 06:08:59;;;;;;;0.10;0.10;;;4.50;13.10;;;;;;5115661;28;20046;-76
2022/03/29 06:11:25;;;;;;;0.17;0.17;;;4.60;19.70;;;;;;5115417;28;20044;-77
2022/03/29 06:13:50;;;;;;;0.10;0.10;;;4.80;15.10;;;;;;5105826;28;20063;-76
2022/03/29 06:16:16;;;;;;;0.10;0.10;;;5.10;10.10;;;;;;5094640;28;20086;-76
2022/03/29 06:18:42;;;;;;;0.85;0.85;;;5.40;1.00;;;;;;5098125;28;20040;-76
2022/03/29 06:21:08;;;;;;;2.05;0.57;;;5.70;1.00;;;;;;5093617;28;20036;-76
2022/03/29 06:23:34;;;;;;;0.10;0.10;;;5.80;1.00;;;;;;5094630;28;20032;-76
2022/03/29 06:26:00;;;;;;;0.50;0.50;;;5.80;1.00;;;;;;5099653;28;20036;-76
2022/03/29 06:28:26;;;;;;;0.25;0.25;;;6.00;1.00;;;;;;5103180;28;20410;-76
2022/03/29 06:30:52;;;;;;;0.32;0.32;;;6.10;1.00;;;;;;5096836;28;20052;-75
2022/03/29 06:33:19;;;;;;;0.40;0.35;;;6.00;1.00;;;;;;5097073;28;20526;-76
2022/03/29 06:35:45;;;;;;;0.38;0.38;;;6.10;1.00;;;;;;5103999;28;20084;-77
2022/03/29 06:38:11;;;;;;;0.20;0.20;;;6.10;1.00;;;;;;5108496;28;20039;-75
2022/03/29 06:40:37;;;;;;;0.10;0.10;;;6.30;1.00;;;;;;5112106;28;20039;-76
2022/03/29 06:43:03;;;;;;;0.10;0.10;;;6.20;1.00;;;;;;5112723;28;20111;-76
2022/03/29 06:45:30;;;;;;;0.35;0.20;;;6.50;1.00;;;;;;5112345;28;20040;-77
2022/03/29 06:47:58;;;;;;;0.10;0.10;;;6.50;1.00;;;;;;5101586;28;20044;-75
2022/03/29 06:50:24;;;;;;;0.55;0.55;;;6.80;1.00;;;;;;5094469;28;20129;-76
2022/03/29 06:52:50;;;;;;;0.85;0.35;;;6.80;1.00;;;;;;5093916;28;20510;-76
2022/03/29 06:55:21;;;;;;;0.10;0.10;;;6.90;1.00;;;;;;5106125;28;20120;-76
2022/03/29 06:57:47;;;;;;;0.10;0.10;;;6.90;1.00;;;;;;5096445;28;20052;-76
2022/03/29 07:00:13;;;;;;;0.10;0.10;;;6.90;1.00;;;;;;5094158;28;20039;-76
2022/03/29 07:02:39;;;;;;;0.35;0.35;;;6.80;1.00;;;;;;5094437;28;20036;-75
2022/03/29 07:05:06;;;;;;;0.20;0.20;;;6.90;1.00;;;;;;5094955;28;20409;-76
2022/03/29 07:07:32;;;;;;;0.30;0.30;;;6.90;1.00;;;;;;5094279;28;20047;-77
2022/03/29 07:12:56;;;;;;;0.20;0.20;;;7.10;1.00;;;;;;5093849;28;20038;-76
2022/03/29 07:15:23;;;;;;;0.45;0.45;;;7.20;1.00;;;;;;5094431;28;20048;-76
2022/03/29 07:17:49;;;;;;;0.45;0.43;;;7.00;1.00;;;;;;5095197;28;20036;-76
2022/03/29 07:20:16;;;;;;;1.27;0.30;;;7.10;1.00;;;;;;5095136;28;20039;-75
2022/03/29 07:22:44;;;;;;;0.13;0.13;;;7.30;1.00;;;;;;5094431;28;20064;-77
2022/03/29 07:25:11;;;;;;;0.22;0.22;;;7.40;1.00;;;;;;5094278;28;20071;-76
2022/03/29 07:27:37;;;;;;;0.25;0.25;;;7.50;1.00;;;;;;5094037;28;20044;-76
2022/03/29 07:30:05;;;;;;;3.83;0.63;;;7.80;1.00;;;;;;5094668;28;20047;-76
2022/03/29 07:32:31;;;;;;;0.65;0.65;;;8.30;1.00;;;;;;5097820;28;20032;-76
2022/03/29 07:34:57;;;;;;;0.45;0.40;;;8.60;1.00;;;;;;5098169;28;20044;-76
2022/03/29 07:37:24;;;;;;;0.20;0.20;;;8.60;1.00;;;;;;5097955;28;20154;-76
2022/03/29 07:39:56;;;;;;;0.52;0.52;;;8.90;1.00;;;;;;5098104;28;20163;-76
2022/03/29 07:42:22;;;;;;;0.20;0.20;;;8.80;1.00;;;;;;5097628;28;20517;-77
2022/03/29 07:44:50;;;;;;;2.00;0.80;;;9.10;1.00;;;;;;5097698;28;20039;-76
2022/03/29 07:47:19;;;;;;;0.17;0.17;;;9.10;1.00;;;;;;5098016;28;20079;-76
2022/03/29 07:49:45;;;;;;;0.95;0.88;;;9.20;1.00;;;;;;5097924;28;20501;-75
2022/03/29 07:52:11;;;;;;;0.40;0.40;;;9.30;1.00;;;;;;5097844;28;20043;-75
2022/03/29 07:54:37;;;;;;;1.05;0.75;;;9.60;1.00;;;;;;5098076;28;20044;-73
2022/03/29 07:57:04;;;;;;;3.47;0.95;;;9.80;1.00;;;;;;5097745;28;20115;-75
2022/03/29 07:59:30;;;;;;;0.98;0.98;;;9.80;1.00;;;;;;5098199;28;20040;-76
2022/03/29 08:01:56;;;;;;;0.35;0.35;;;10.00;1.00;;;;;;5097751;28;20028;-76
2022/03/29 08:04:24;;;;;;;0.75;0.75;;;10.50;1.00;;;;;;5097513;28;20390;-76
2022/03/29 08:06:50;;;;;;;0.35;0.35;;;10.80;1.00;;;;;;5097666;28;20024;-76
2022/03/29 08:09:16;;;;;;;1.80;1.40;;;11.00;1.00;;;;;;5097845;28;20544;-76
2022/03/29 08:11:42;;;;;;;0.95;0.73;;;11.10;1.00;;;;;;5097006;28;20032;-76
2022/03/29 08:14:08;;;;;;;2.25;1.13;;;11.10;1.00;;;;;;5097654;28;20032;-76
2022/03/29 08:16:34;;;;;;;0.52;0.40;;;11.20;1.00;;;;;;5097715;28;20113;-76
2022/03/29 08:19:00;;;;;;;0.90;0.77;;;11.30;1.00;;;;;;5097616;28;20356;-76
2022/03/29 08:24:11;;;;;;;1.02;1.00;;;11.40;1.00;;;;;;5096946;28;20038;-76
2022/03/29 08:26:37;;;;;;;1.00;0.90;;;11.50;1.00;;;;;;5096838;28;20465;-75
2022/03/29 08:29:04;;;;;;;0.38;0.38;;;11.30;1.00;;;;;;5096706;28;20052;-76
2022/03/29 08:31:30;;;;;;;0.20;0.20;;;11.80;1.00;;;;;;5096819;28;20513;-76
2022/03/29 08:33:55;;;;;;;0.82;0.82;;;11.90;1.00;;;;;;5097092;28;20028;-76
2022/03/29 08:36:21;;;;;;;0.47;0.47;;;11.80;1.00;;;;;;5097035;28;20044;-76
2022/03/29 08:38:47;;;;;;;0.75;0.75;;;11.70;1.00;;;;;;5096895;28;20081;-76
2022/03/29 08:41:13;;;;;;;1.17;1.10;;;11.30;1.00;;;;;;5096722;28;20497;-76
2022/03/29 08:43:40;;;;;;;0.60;0.60;;;11.80;1.00;;;;;;5096006;28;20035;-76
2022/03/29 08:46:06;;;;;;;0.35;0.35;;;11.50;1.00;;;;;;5096649;28;20040;-76
2022/03/29 08:48:31;;;;;;;27.15;1.95;;;11.70;1.00;;;;;;5096677;28;20043;-76
2022/03/29 08:51:00;;;;;;;0.75;0.75;;;11.90;1.00;;;;;;5096418;28;20039;-76
2022/03/29 08:53:28;;;;;;;1.50;1.38;;;11.90;1.00;;;;;;5096695;28;20043;-76
2022/03/29 08:55:54;;;;;;;2.47;1.55;;;12.20;1.00;;;;;;5096864;28;20047;-76
2022/03/29 08:58:22;;;;;;;1.10;1.10;;;12.60;1.00;;;;;;5096880;28;20040;-75
2022/03/29 09:00:49;;;;;;;0.50;0.47;;;13.10;1.00;;;;;;5096687;28;20036;-76
2022/03/29 09:03:16;;;;;;;1.05;0.65;;;12.90;1.00;;;;;;5097001;28;20032;-77
2022/03/29 09:05:43;;;;;;;0.50;0.50;;;12.60;1.00;;;;;;5096405;28;20035;-76
2022/03/29 09:08:11;;;;;;;2.15;1.38;;;12.70;1.00;;;;;;5096057;28;20074;-76
2022/03/29 09:10:38;;;;;;;0.40;0.40;;;12.60;1.00;;;;;;5096086;28;20518;-76
2022/03/29 09:13:27;;;;;;;0.30;0.30;;;12.50;1.00;;;;;;5096526;28;20028;-76
2022/03/29 09:16:00;;;;;;;0.40;0.40;;;13.00;1.00;;;;;;5096101;28;20063;-76
2022/03/29 09:18:27;;;;;;;4.57;1.75;;;12.90;1.00;;;;;;5095991;28;20039;-75
2022/03/29 09:21:12;;;;;;;0.45;0.45;;;12.80;1.00;;;;;;5095474;28;20043;-76
2022/03/29 09:23:40;;;;;;;0.52;0.52;;;13.40;1.00;;;;;;5095753;28;20145;-76
2022/03/29 09:26:07;;;;;;;0.70;0.60;;;13.60;1.00;;;;;;5095527;28;20502;-76
2022/03/29 09:28:37;;;;;;;0.55;0.50;;;13.50;1.00;;;;;;5095777;28;20391;-76
2022/03/29 09:31:23;;;;;;;0.60;0.60;;;13.30;1.00;;;;;;5078056;28;20402;-76
2022/03/29 09:33:49;;;;;;;0.60;0.60;;;13.70;1.00;;;;;;5094954;28;20039;-76
2022/03/29 09:36:20;;;;;;;1.35;1.27;;;13.80;1.00;;;;;;5095199;28;20068;-76
2022/03/29 09:38:48;;;;;;;1.02;0.93;;;13.80;1.00;;;;;;5095483;28;20502;-76
2022/03/29 09:41:30;;;;;;;2.10;0.70;;;13.70;1.00;;;;;;5095010;28;20503;-76
2022/03/29 09:44:08;;;;;;;0.82;0.82;;;14.20;1.00;;;;;;5096012;28;20032;-76
2022/03/29 09:47:00;;;;;;;0.55;0.55;;;14.20;1.00;;;;;;5095235;28;20482;-76
2022/03/29 09:49:27;;;;;;;0.30;0.30;;;14.00;1.00;;;;;;5094740;28;20067;-76
2022/03/29 09:52:11;;;;;;;0.25;0.25;;;14.20;1.00;;;;;;5094872;28;20502;-76
2022/03/29 09:54:38;;;;;;;1.40;0.55;;;14.20;1.00;;;;;;5094353;28;20044;-76
2022/03/29 09:57:04;;;;;;;0.32;0.32;;;14.20;1.00;;;;;;5094816;28;20510;-75
2022/03/29 09:59:33;;;;;;;10.85;0.90;;;13.40;1.00;;;;;;5095067;28;20032;-75
2022/03/29 10:02:00;;;;;;;0.55;0.55;;;13.60;1.00;;;;;;5095089;28;20036;-76
2022/03/29 10:04:29;;;;;;;2.58;1.23;;;14.00;1.00;;;;;;5094775;28;20036;-76
2022/03/29 10:06:58;;;;;;;0.85;0.80;;;14.20;1.00;;;;;;5094902;28;20040;-76
2022/03/29 10:09:43;;;;;;;9.27;0.77;;;14.60;1.00;;;;;;5095297;28;20035;-75
2022/03/29 10:12:12;;;;;;;0.68;0.40;;;14.50;1.00;;;;;;5094437;28;20043;-76
2022/03/29 10:14:41;;;;;;;0.60;0.60;;;15.10;1.00;;;;;;5094575;28;20571;-76
2022/03/29 10:17:07;;;;;;;0.93;0.68;;;14.80;1.00;;;;;;5095342;28;20075;-75
2022/03/29 10:19:35;;;;;;;0.47;0.47;;;14.70;1.00;;;;;;5095025;28;20065;-76
2022/03/29 10:22:02;;;;;;;1.27;1.17;;;14.00;1.00;;;;;;5095160;28;20097;-76
2022/03/29 10:24:30;;;;;;;1.08;0.93;;;14.00;1.00;;;;;;5097069;28;20063;-75
2022/03/29 10:27:02;;;;;;;2.20;1.33;;;14.40;1.00;;;;;;5094631;28;20044;-75
2022/03/29 10:29:29;;;;;;;0.57;0.57;;;14.60;1.00;;;;;;5095357;28;20052;-76
2022/03/29 10:32:01;;;;;;;0.75;0.75;;;14.70;1.00;;;;;;5094688;28;20043;-75
2022/03/29 10:34:39;;;;;;;7.28;1.65;;;14.50;1.00;;;;;;5095807;28;20036;-76
2022/03/29 10:37:13;;;;;;;0.47;0.47;;;13.90;1.00;;;;;;5092616;28;20064;-76
2022/03/29 10:39:53;;;;;;;0.65;0.65;;;14.40;1.00;;;;;;5074140;28;20043;-76
2022/03/29 10:42:28;;;;;;;1.45;1.35;;;14.30;1.00;;;;;;5077908;28;20073;-76
2022/03/29 10:45:20;;;;;;;0.57;0.57;;;14.30;1.00;;;;;;5094679;28;20040;-75
2022/03/29 10:48:09;;;;;;;0.52;0.52;;;14.20;1.00;;;;;;5104240;28;20071;-76
2022/03/29 10:50:53;;;;;;;1.90;1.27;;;14.60;1.00;;;;;;5114079;28;20043;-76
2022/03/29 10:53:26;;;;;;;1.50;1.40;;;15.30;1.00;;;;;;5111880;28;20032;-76
2022/03/29 10:56:11;;;;;;;1.17;0.93;;;14.90;1.00;;;;;;5113647;28;20129;-76
2022/03/29 10:59:00;;;;;;;0.75;0.75;;;14.60;1.00;;;;;;5114328;28;20039;-76
2022/03/29 11:01:26;;;;;;;0.60;0.60;;;14.80;1.00;;;;;;5073264;28;20094;-76
2022/03/29 11:04:06;;;;;;;0.90;0.90;;;15.20;1.00;;;;;;5073179;28;20040;-76
2022/03/29 11:06:32;;;;;;;0.35;0.35;;;15.20;1.00;;;;;;5091610;28;20028;-74
2022/03/29 11:09:06;;;;;;;0.50;0.50;;;15.00;1.00;;;;;;5095083;28;20055;-73
2022/03/29 11:11:40;;;;;;;1.08;1.00;;;14.40;1.00;;;;;;5109641;28;20081;-74
2022/03/29 11:14:27;;;;;;;2.20;0.63;;;14.40;1.00;;;;;;5097134;28;20059;-74
2022/03/29 11:17:11;;;;;;;2.40;0.88;;;14.30;1.00;;;;;;5097512;28;20117;-74
2022/03/29 11:19:46;;;;;;;1.20;1.15;;;14.50;1.00;;;;;;5097110;28;20032;-74
2022/03/29 11:22:29;;;;;;;0.60;0.60;;;14.40;1.00;;;;;;5112018;28;20156;-74
2022/03/29 11:25:20;;;;;;;0.70;0.70;;;14.60;1.00;;;;;;5113137;28;20036;-75
2022/03/29 11:27:46;;;;;;;2.70;1.38;;;14.40;1.00;;;;;;5101558;28;20086;-74
2022/03/29 11:30:12;;;;;;;2.03;1.48;;;14.50;1.00;;;;;;5096634;28;20043;-74
2022/03/29 11:32:43;;;;;;;1.42;0.57;;;14.70;1.00;;;;;;5097602;28;20093;-76
2022/03/29 11:35:11;;;;;;;1.15;0.95;;;15.10;1.00;;;;;;5101640;28;20046;-76
2022/03/29 11:37:45;;;;;;;1.50;1.05;;;15.30;1.00;;;;;;5103675;28;20044;-75
2022/03/29 11:40:16;;;;;;;0.95;0.75;;;15.70;1.00;;;;;;5097653;28;20040;-76
2022/03/29 11:42:52;;;;;;;;;;;15.80;1.00;;;;;;5099112;28;20072;-76
2022/03/29 11:45:25;;;;;;;3.45;0.50;;;15.30;1.00;;;;;;5098468;28;20259;-76
2022/03/29 11:48:07;;;;;;;0.40;0.40;;;15.90;1.00;;;;;;5093507;28;20079;-75
2022/03/29 11:50:39;;;;;;;0.95;0.95;;;16.20;1.00;;;;;;5109484;28;20028;-75
2022/03/29 11:53:20;;;;;;;0.60;0.60;;;16.00;1.00;;;;;;5097366;28;20040;-75
2022/03/29 11:55:59;;;;;;;0.75;0.75;;;16.40;1.00;;;;;;5096717;28;20118;-75
2022/03/29 11:58:28;;;;;;;0.30;0.30;;;16.40;1.00;;;;;;5104325;28;20043;-77
2022/03/29 12:01:02;;;;;;;0.55;0.55;;;16.50;1.00;;;;;;5116957;28;20036;-77
2022/03/29 12:03:29;;;;;;;1.25;0.80;;;16.20;1.00;;;;;;5116806;28;20043;-76
2022/03/29 12:06:06;;;;;;;0.30;0.30;;;15.90;1.00;;;;;;5117689;28;20034;-77
2022/03/29 12:08:51;;;;;;;0.75;0.75;;;15.50;1.00;;;;;;5118429;28;20058;-77
2022/03/29 12:11:33;;;;;;;0.80;0.73;;;15.70;1.00;;;;;;5117422;28;20687;-76
2022/03/29 12:14:00;;;;;;;0.68;0.68;;;15.40;1.00;;;;;;5117794;28;20043;-76
2022/03/29 12:16:27;;;;;;;0.32;0.32;;;15.50;1.00;;;;;;5117759;28;20043;-77
2022/03/29 12:18:53;;;;;;;0.75;0.40;;;15.30;1.00;;;;;;5116425;28;20031;-77
2022/03/29 12:24:03;;;;;;;0.10;0.10;;;15.70;1.00;;;;;;5219224;22;20056;-76
2022/03/29 12:26:31;;;;;;;0.20;0.20;;;16.00;1.00;;;;;;5076801;28;20542;-76
2022/03/29 12:28:58;;;;;;;0.60;0.60;;;16.20;1.00;;;;;;5076230;28;20048;-76
2022/03/29 12:31:27;;;;;;;0.70;0.70;;;16.00;1.00;;;;;;5076379;28;20081;-76
2022/03/29 12:33:54;;;;;;;1.48;1.17;;;15.80;1.00;;;;;;5076969;28;20040;-76
2022/03/29 12:36:20;;;;;;;0.45;0.45;;;16.00;1.00;;;;;;5076840;28;20043;-76
2022/03/29 12:38:48;;;;;;;0.73;0.73;;;16.00;1.00;;;;;;5076335;28;20040;-75
2022/03/29 12:41:37;;;;;;;0.60;0.60;;;16.00;1.00;;;;;;5076771;28;20134;-76
2022/03/29 12:44:06;;;;;;;0.22;0.22;;;15.90;1.00;;;;;;5062836;28;20116;-76
2022/03/29 12:46:34;;;;;;;0.28;0.28;;;16.10;1.00;;;;;;5076450;28;20028;-76
2022/03/29 12:49:00;;;;;;;0.30;0.30;;;16.10;1.00;;;;;;5075924;28;20079;-76
2022/03/29 12:51:28;;;;;;;0.50;0.50;;;16.00;1.00;;;;;;5075865;28;20047;-76
2022/03/29 12:54:14;;;;;;;0.63;0.40;;;15.90;1.00;;;;;;5076060;28;20036;-75
2022/03/29 12:56:44;;;;;;;0.30;0.30;;;16.20;1.00;;;;;;5074275;28;20036;-76
2022/03/29 12:59:26;;;;;;;0.30;0.30;;;16.60;1.00;;;;;;5071088;28;20048;-76
2022/03/29 13:01:52;;;;;;;0.20;0.20;;;16.30;1.00;;;;;;5073720;28;20029;-75
2022/03/29 13:04:19;;;;;;;1.48;0.28;;;16.30;1.00;;;;;;5063194;28;20041;-74
2022/03/29 13:06:45;;;;;;;0.85;0.85;;;16.20;1.00;;;;;;5074791;28;20119;-75
2022/03/29 13:09:16;;;;;;;1.20;1.10;;;15.90;1.00;;;;;;5069512;28;20057;-74
2022/03/29 13:11:43;;;;;;;1.70;1.30;;;15.90;1.00;;;;;;5083293;28;20105;-76
2022/03/29 13:14:10;;;;;;;0.30;0.30;;;16.00;1.00;;;;;;5055664;28;20467;-75
2022/03/29 13:16:36;;;;;;;0.82;0.82;;;15.90;1.00;;;;;;5058717;28;20036;-75
2022/03/29 13:19:09;;;;;;;0.45;0.45;;;15.80;1.00;;;;;;5071344;28;20802;-75
2022/03/29 13:21:38;;;;;;;4.57;0.93;;;15.90;1.00;;;;;;5065726;28;20071;-75
2022/03/29 13:24:12;;;;;;;0.90;0.90;;;15.60;1.00;;;;;;5060585;28;20082;-75